createdAt,value
2018-09-12T00:00:13.941Z,19.87
2018-09-12T00:02:42.350Z,19.86
2018-09-12T00:05:11.800Z,19.90
2018-09-12T00:07:40.265Z,19.85
2018-09-12T00:10:08.688Z,19.89
2018-09-12T00:12:37.081Z,19.85
2018-09-12T00:15:05.593Z,19.81
2018-09-12T00:17:34.016Z,19.76
2018-09-12T00:20:02.576Z,19.74
2018-09-12T00:22:30.965Z,19.67
2018-09-12T00:24:59.438Z,19.67
2018-09-12T00:27:27.853Z,19.66
2018-09-12T00:29:56.318Z,19.62
2018-09-12T00:32:24.747Z,19.64
2018-09-12T00:34:53.172Z,19.62
2018-09-12T00:37:21.577Z,19.59
2018-09-12T00:39:50.010Z,19.51
2018-09-12T00:42:18.409Z,19.47
2018-09-12T00:44:46.821Z,19.47
2018-09-12T00:47:15.228Z,19.45
2018-09-12T00:49:43.616Z,19.46
2018-09-12T00:52:12.029Z,19.50
2018-09-12T00:54:40.629Z,19.50
2018-09-12T00:57:09.112Z,19.51
2018-09-12T00:59:38.604Z,19.65
2018-09-12T01:02:07.034Z,19.64
2018-09-12T01:04:35.452Z,19.61
2018-09-12T01:07:03.960Z,19.51
2018-09-12T01:09:32.522Z,19.53
2018-09-12T01:12:00.942Z,19.47
2018-09-12T01:14:31.282Z,19.46
2018-09-12T01:17:00.199Z,19.45
2018-09-12T01:19:29.048Z,19.47
2018-09-12T01:21:57.508Z,19.45
2018-09-12T01:24:25.918Z,19.39
2018-09-12T01:26:54.413Z,19.41
2018-09-12T01:29:26.314Z,19.47
2018-09-12T01:31:54.874Z,19.62
2018-09-12T01:34:24.237Z,19.57
2018-09-12T01:36:52.785Z,19.50
2018-09-12T01:39:21.170Z,19.51
2018-09-12T01:41:49.591Z,19.49
2018-09-12T01:44:18.606Z,19.51
2018-09-12T01:46:46.991Z,19.61
2018-09-12T01:49:17.497Z,19.63
2018-09-12T01:51:46.845Z,19.69
2018-09-12T01:54:15.786Z,19.52
2018-09-12T01:56:44.189Z,19.37
2018-09-12T01:59:13.062Z,19.35
2018-09-12T02:01:41.829Z,19.33
2018-09-12T02:04:10.280Z,19.25
2018-09-12T02:06:38.731Z,19.17
2018-09-12T02:09:10.225Z,19.07
2018-09-12T02:11:38.700Z,19.02
2018-09-12T02:14:07.136Z,18.95
2018-09-12T02:16:35.550Z,18.88
2018-09-12T02:19:04.305Z,18.80
2018-09-12T02:21:32.704Z,18.70
2018-09-12T02:24:02.033Z,18.69
2018-09-12T02:26:30.485Z,18.69
2018-09-12T02:28:58.926Z,18.66
2018-09-12T02:31:27.318Z,18.62
2018-09-12T02:33:55.870Z,18.65
2018-09-12T02:36:28.649Z,18.67
2018-09-12T02:38:58.298Z,18.73
2018-09-12T02:41:26.697Z,18.83
2018-09-12T02:43:55.564Z,18.90
2018-09-12T02:46:24.111Z,19.03
2018-09-12T02:48:52.888Z,19.12
2018-09-12T02:51:21.344Z,19.12
2018-09-12T02:53:49.815Z,19.19
2018-09-12T02:56:18.484Z,19.29
2018-09-12T02:58:46.891Z,19.31
2018-09-12T03:01:15.702Z,19.29
2018-09-12T03:03:44.113Z,19.27
2018-09-12T03:06:12.557Z,19.10
2018-09-12T03:08:40.984Z,18.96
2018-09-12T03:11:09.446Z,18.88
2018-09-12T03:13:37.825Z,18.78
2018-09-12T03:16:06.285Z,18.70
2018-09-12T03:18:34.726Z,18.63
2018-09-12T03:21:03.802Z,18.65
2018-09-12T03:23:32.099Z,18.60
2018-09-12T03:26:00.524Z,18.64
2018-09-12T03:28:28.906Z,18.59
2018-09-12T03:30:57.366Z,18.60
2018-09-12T03:33:25.744Z,18.56
2018-09-12T03:35:54.133Z,18.57
2018-09-12T03:38:22.617Z,18.53
2018-09-12T03:40:50.986Z,18.44
2018-09-12T03:43:19.420Z,18.43
2018-09-12T03:45:47.814Z,18.31
2018-09-12T03:48:16.246Z,18.29
2018-09-12T03:50:44.626Z,18.25
2018-09-12T03:53:13.073Z,18.21
2018-09-12T03:55:41.461Z,18.20
2018-09-12T03:58:09.891Z,18.19
2018-09-12T04:00:38.297Z,18.18
2018-09-12T04:03:06.729Z,18.16
2018-09-12T04:05:35.125Z,18.19
2018-09-12T04:08:03.557Z,18.11
2018-09-12T04:10:31.960Z,18.11
2018-09-12T04:13:00.360Z,18.12
2018-09-12T04:15:28.754Z,18.11
2018-09-12T04:17:57.184Z,18.13
2018-09-12T04:20:25.584Z,18.10
2018-09-12T04:22:53.997Z,18.13
2018-09-12T04:25:22.388Z,18.14
2018-09-12T04:27:50.810Z,18.26
2018-09-12T04:30:19.200Z,18.26
2018-09-12T04:32:47.609Z,18.24
2018-09-12T04:35:15.977Z,18.23
2018-09-12T04:37:44.610Z,18.34
2018-09-12T04:40:13.106Z,18.46
2018-09-12T04:42:41.600Z,18.56
2018-09-12T04:45:09.925Z,18.64
2018-09-12T04:47:38.309Z,18.72
2018-09-12T04:50:06.806Z,18.72
2018-09-12T04:52:35.399Z,18.75
2018-09-12T04:55:03.998Z,18.73
2018-09-12T04:57:32.396Z,18.72
2018-09-12T05:00:00.926Z,18.76
2018-09-12T05:02:29.366Z,18.92
2018-09-12T05:04:57.826Z,18.98
2018-09-12T05:07:26.268Z,19.04
2018-09-12T05:09:54.751Z,19.01
2018-09-12T05:12:23.130Z,19.07
2018-09-12T05:14:51.589Z,19.19
2018-09-12T05:17:20.010Z,19.26
2018-09-12T05:19:50.526Z,19.37
2018-09-12T05:22:18.970Z,19.36
2018-09-12T05:24:47.373Z,19.20
2018-09-12T05:27:15.899Z,19.07
2018-09-12T05:29:44.336Z,18.94
2018-09-12T05:32:12.777Z,18.91
2018-09-12T05:34:41.159Z,18.81
2018-09-12T05:37:09.572Z,18.76
2018-09-12T05:39:37.970Z,18.74
2018-09-12T05:42:07.008Z,18.72
2018-09-12T05:44:35.404Z,18.69
2018-09-12T05:47:03.842Z,18.69
2018-09-12T05:49:32.258Z,18.70
2018-09-12T05:52:00.687Z,18.74
2018-09-12T05:54:29.059Z,18.82
2018-09-12T05:56:57.493Z,18.89
2018-09-12T05:59:25.936Z,18.95
2018-09-12T06:01:54.379Z,19.02
2018-09-12T06:04:22.778Z,19.05
2018-09-12T06:06:51.264Z,19.10
2018-09-12T06:09:19.671Z,19.16
2018-09-12T06:11:48.093Z,19.20
2018-09-12T06:14:16.512Z,19.19
2018-09-12T06:16:44.972Z,19.27
2018-09-12T06:19:13.373Z,19.39
2018-09-12T06:21:41.771Z,19.49
2018-09-12T06:24:10.201Z,19.58
2018-09-12T06:26:38.605Z,19.66
2018-09-12T06:29:07.025Z,19.76
2018-09-12T06:31:35.433Z,19.86
2018-09-12T06:34:03.993Z,19.89
2018-09-12T06:36:32.389Z,19.95
2018-09-12T06:39:00.837Z,20.02
2018-09-12T06:41:29.305Z,20.16
2018-09-12T06:43:57.729Z,20.21
2018-09-12T06:46:26.109Z,20.31
2018-09-12T06:48:54.561Z,20.43
2018-09-12T06:51:22.949Z,20.58
2018-09-12T06:53:51.386Z,20.69
2018-09-12T06:56:19.849Z,20.82
2018-09-12T06:58:48.286Z,20.93
2018-09-12T07:01:16.685Z,21.07
2018-09-12T07:03:45.121Z,21.22
2018-09-12T07:06:13.525Z,21.41
2018-09-12T07:08:42.009Z,21.59
2018-09-12T07:11:10.417Z,21.74
2018-09-12T07:13:38.825Z,21.89
2018-09-12T07:16:07.299Z,22.04
2018-09-12T07:18:35.695Z,22.14
2018-09-12T07:21:04.189Z,22.24
2018-09-12T07:23:32.641Z,22.37
2018-09-12T07:26:01.065Z,22.48
2018-09-12T07:28:29.464Z,22.60
2018-09-12T07:30:57.895Z,22.74
2018-09-12T07:33:26.264Z,22.84
2018-09-12T07:35:54.709Z,23.00
2018-09-12T07:38:23.102Z,23.17
2018-09-12T07:40:51.524Z,23.28
2018-09-12T07:43:19.913Z,23.41
2018-09-12T07:45:48.341Z,23.55
2018-09-12T07:48:16.736Z,23.64
2018-09-12T07:50:48.677Z,23.76
2018-09-12T07:53:17.733Z,23.84
2018-09-12T07:55:46.168Z,23.92
2018-09-12T07:58:14.619Z,24.00
2018-09-12T08:00:43.167Z,24.10
2018-09-12T08:03:11.533Z,24.20
2018-09-12T08:05:39.917Z,24.30
2018-09-12T08:08:08.426Z,24.37
2018-09-12T08:10:36.829Z,24.44
2018-09-12T08:13:05.285Z,24.54
2018-09-12T08:15:33.693Z,24.61
2018-09-12T08:18:02.726Z,24.71
2018-09-12T08:20:31.098Z,24.79
2018-09-12T08:22:59.521Z,24.90
2018-09-12T08:25:27.930Z,25.01
2018-09-12T08:27:56.374Z,25.04
2018-09-12T08:30:24.787Z,25.09
2018-09-12T08:32:53.226Z,25.11
2018-09-12T08:35:21.638Z,25.22
2018-09-12T08:37:50.050Z,25.35
2018-09-12T08:40:18.465Z,25.44
2018-09-12T08:42:46.890Z,25.41
2018-09-12T08:45:15.353Z,25.47
2018-09-12T08:47:43.791Z,25.54
2018-09-12T08:50:12.181Z,25.64
2018-09-12T08:52:40.667Z,25.69
2018-09-12T08:55:09.119Z,25.77
2018-09-12T08:57:37.562Z,25.86
2018-09-12T09:00:06.714Z,25.96
2018-09-12T09:02:35.138Z,26.00
2018-09-12T09:05:03.539Z,26.00
2018-09-12T09:07:31.987Z,26.01
2018-09-12T09:10:00.456Z,26.09
2018-09-12T09:12:28.840Z,26.19
2018-09-12T09:14:57.283Z,26.29
2018-09-12T09:17:25.741Z,26.32
2018-09-12T09:19:54.197Z,26.37
2018-09-12T09:22:22.599Z,26.42
2018-09-12T09:24:51.105Z,26.48
2018-09-12T09:27:19.514Z,26.55
2018-09-12T09:29:47.921Z,26.61
2018-09-12T09:32:16.331Z,26.56
2018-09-12T09:34:44.826Z,26.62
2018-09-12T09:37:13.229Z,26.66
2018-09-12T09:39:41.674Z,26.73
2018-09-12T09:42:10.068Z,26.78
2018-09-12T09:44:38.492Z,26.82
2018-09-12T09:47:06.894Z,26.78
2018-09-12T09:49:35.321Z,26.84
2018-09-12T09:52:03.695Z,26.92
2018-09-12T09:54:32.166Z,26.93
2018-09-12T09:57:00.552Z,26.90
2018-09-12T09:59:29.001Z,27.03
2018-09-12T10:02:02.814Z,27.11
2018-09-12T10:04:37.114Z,27.14
2018-09-12T10:07:11.168Z,27.12
2018-09-12T10:09:39.645Z,27.17
2018-09-12T10:12:08.027Z,27.16
2018-09-12T10:14:36.438Z,27.18
2018-09-12T10:17:04.885Z,27.31
2018-09-12T10:19:33.314Z,27.36
2018-09-12T10:22:02.054Z,27.35
2018-09-12T10:24:30.436Z,27.36
2018-09-12T10:26:58.879Z,27.43
2018-09-12T10:29:27.273Z,27.46
2018-09-12T10:31:55.717Z,27.43
2018-09-12T10:34:24.134Z,27.44
2018-09-12T10:36:52.562Z,27.52
2018-09-12T10:39:21.013Z,27.59
2018-09-12T10:41:49.499Z,27.55
2018-09-12T10:44:17.934Z,27.49
2018-09-12T10:46:46.401Z,27.57
2018-09-12T10:49:14.807Z,27.53
2018-09-12T10:51:43.205Z,27.54
2018-09-12T10:54:11.670Z,27.53
2018-09-12T10:56:40.092Z,27.60
2018-09-12T10:59:08.552Z,27.62
2018-09-12T11:01:36.932Z,27.63
2018-09-12T11:04:05.436Z,27.66
2018-09-12T11:06:33.925Z,27.63
2018-09-12T11:09:02.996Z,27.60
2018-09-12T11:11:31.405Z,27.58
2018-09-12T11:13:59.821Z,27.52
2018-09-12T11:16:28.266Z,27.57
2018-09-12T11:18:56.716Z,27.60
2018-09-12T11:21:25.113Z,27.62
2018-09-12T11:23:53.563Z,27.62
2018-09-12T11:26:22.006Z,27.67
2018-09-12T11:28:51.068Z,27.64
2018-09-12T11:31:19.481Z,27.61
2018-09-12T11:33:47.939Z,27.59
2018-09-12T11:36:16.379Z,27.60
2018-09-12T11:38:45.045Z,27.65
2018-09-12T11:41:13.448Z,27.64
2018-09-12T11:43:41.925Z,27.66
2018-09-12T11:46:10.413Z,27.62
2018-09-12T11:48:38.823Z,27.67
2018-09-12T11:51:07.305Z,27.66
2018-09-12T11:53:35.711Z,27.78
2018-09-12T11:56:04.340Z,27.76
2018-09-12T11:58:32.731Z,27.78
2018-09-12T12:01:01.169Z,27.71
2018-09-12T12:03:29.649Z,27.73
2018-09-12T12:05:58.123Z,27.75
2018-09-12T12:08:26.593Z,27.70
2018-09-12T12:10:55.060Z,27.71
2018-09-12T12:13:23.478Z,27.68
2018-09-12T12:15:51.907Z,27.70
2018-09-12T12:18:20.281Z,27.80
2018-09-12T12:20:48.742Z,27.90
2018-09-12T12:23:17.220Z,27.95
2018-09-12T12:25:45.589Z,27.94
2018-09-12T12:28:14.005Z,27.93
2018-09-12T12:30:42.473Z,27.94
2018-09-12T12:33:10.854Z,27.97
2018-09-12T12:35:39.450Z,27.99
2018-09-12T12:38:07.857Z,28.02
2018-09-12T12:40:36.233Z,28.07
2018-09-12T12:43:05.013Z,28.16
2018-09-12T12:45:33.478Z,28.14
2018-09-12T12:48:01.923Z,28.18
2018-09-12T12:50:30.313Z,28.22
2018-09-12T12:52:59.793Z,28.20
2018-09-12T12:55:28.190Z,28.25
2018-09-12T12:57:56.649Z,28.34
2018-09-12T13:00:25.069Z,28.37
2018-09-12T13:02:53.819Z,28.50
2018-09-12T13:05:22.263Z,28.44
2018-09-12T13:07:50.792Z,28.39
2018-09-12T13:10:19.213Z,28.36
2018-09-12T13:12:47.892Z,28.40
2018-09-12T13:15:16.301Z,28.45
2018-09-12T13:17:44.863Z,28.56
2018-09-12T13:20:13.246Z,28.71
2018-09-12T13:22:41.661Z,28.86
2018-09-12T13:25:10.054Z,29.12
2018-09-12T13:27:38.625Z,29.16
2018-09-12T13:30:07.005Z,29.13
2018-09-12T13:32:35.441Z,29.10
2018-09-12T13:35:03.921Z,29.05
2018-09-12T13:37:32.877Z,29.11
2018-09-12T13:40:01.293Z,29.21
2018-09-12T13:42:29.680Z,29.23
2018-09-12T13:44:58.141Z,29.28
2018-09-12T13:47:26.525Z,29.32
2018-09-12T13:49:54.967Z,29.35
2018-09-12T13:52:23.353Z,29.47
2018-09-12T13:54:51.791Z,29.63
2018-09-12T13:57:20.201Z,29.81
2018-09-12T13:59:48.648Z,29.89
2018-09-12T14:02:17.041Z,29.98
2018-09-12T14:04:45.482Z,30.14
2018-09-12T14:07:13.913Z,30.23
2018-09-12T14:09:42.351Z,30.38
2018-09-12T14:12:11.441Z,30.53
2018-09-12T14:14:39.884Z,30.48
2018-09-12T14:17:08.461Z,30.56
2018-09-12T14:19:36.872Z,30.75
2018-09-12T14:22:05.265Z,30.98
2018-09-12T14:24:33.842Z,31.24
2018-09-12T14:27:02.244Z,31.41
2018-09-12T14:29:30.668Z,31.51
2018-09-12T14:31:59.073Z,31.54
2018-09-12T14:34:27.437Z,31.80
2018-09-12T14:36:55.833Z,32.06
2018-09-12T14:39:24.241Z,31.81
2018-09-12T14:41:52.669Z,31.64
2018-09-12T14:44:21.063Z,31.72
2018-09-12T14:46:49.505Z,32.11
2018-09-12T14:49:17.881Z,32.65
2018-09-12T14:51:46.280Z,33.15
2018-09-12T14:54:14.731Z,33.50
2018-09-12T14:56:43.166Z,33.98
2018-09-12T14:59:11.653Z,34.13
2018-09-12T15:01:40.115Z,34.57
2018-09-12T15:04:08.481Z,34.91
2018-09-12T15:06:36.881Z,34.92
2018-09-12T15:09:08.973Z,35.08
2018-09-12T15:11:37.388Z,35.16
2018-09-12T15:14:12.386Z,35.45
2018-09-12T15:16:40.821Z,35.85
2018-09-12T15:19:09.220Z,36.32
2018-09-12T15:21:37.645Z,37.48
2018-09-12T15:24:06.037Z,38.78
2018-09-12T15:26:34.413Z,40.18
2018-09-12T15:29:03.568Z,41.38
2018-09-12T15:31:31.947Z,42.76
2018-09-12T15:34:00.368Z,43.63
2018-09-12T15:36:28.762Z,44.12
2018-09-12T15:38:57.177Z,44.62
2018-09-12T15:41:25.608Z,45.48
2018-09-12T15:43:54.023Z,46.80
2018-09-12T15:46:22.405Z,47.64
2018-09-12T15:48:50.801Z,47.77
2018-09-12T15:51:19.178Z,47.43
2018-09-12T15:53:47.861Z,47.59
2018-09-12T15:56:16.258Z,46.93
2018-09-12T15:58:44.673Z,46.06
2018-09-12T16:01:13.042Z,45.94
2018-09-12T16:03:41.506Z,45.72
2018-09-12T16:06:09.903Z,45.03
2018-09-12T16:08:38.401Z,44.44
2018-09-12T16:11:06.797Z,42.41
2018-09-12T16:13:35.217Z,40.15
2018-09-12T16:16:03.646Z,38.78
2018-09-12T16:18:32.068Z,39.39
2018-09-12T16:21:00.469Z,40.62
2018-09-12T16:23:28.881Z,41.93
2018-09-12T16:25:57.453Z,42.28
2018-09-12T16:28:25.824Z,40.55
2018-09-12T16:30:54.252Z,40.54
2018-09-12T16:33:22.641Z,39.49
2018-09-12T16:35:51.113Z,37.46
2018-09-12T16:38:19.586Z,35.61
2018-09-12T16:40:48.048Z,34.70
2018-09-12T16:43:16.444Z,33.56
2018-09-12T16:45:44.913Z,32.99
2018-09-12T16:48:13.304Z,32.48
2018-09-12T16:50:42.356Z,31.99
2018-09-12T16:53:10.698Z,31.57
2018-09-12T16:55:39.124Z,31.00
2018-09-12T16:58:07.547Z,30.66
2018-09-12T17:00:35.985Z,30.39
2018-09-12T17:03:04.413Z,30.18
2018-09-12T17:05:32.837Z,29.91
2018-09-12T17:08:02.045Z,29.74
2018-09-12T17:10:30.469Z,29.50
2018-09-12T17:12:58.862Z,29.30
2018-09-12T17:15:27.251Z,29.17
2018-09-12T17:17:55.664Z,29.01
2018-09-12T17:20:24.321Z,28.84
2018-09-12T17:22:52.733Z,28.75
2018-09-12T17:25:21.096Z,28.61
2018-09-12T17:27:49.505Z,28.44
2018-09-12T17:30:17.901Z,28.31
2018-09-12T17:32:46.309Z,28.22
2018-09-12T17:35:15.521Z,28.14
2018-09-12T17:37:43.992Z,28.05
2018-09-12T17:40:12.417Z,27.99
2018-09-12T17:42:40.829Z,27.93
2018-09-12T17:45:09.341Z,27.85
2018-09-12T17:47:38.098Z,27.77
2018-09-12T17:50:06.710Z,27.68
2018-09-12T17:52:35.143Z,27.61
2018-09-12T17:55:03.588Z,27.55
2018-09-12T17:57:32.093Z,27.48
2018-09-12T18:00:00.593Z,27.36
2018-09-12T18:02:29.097Z,27.29
2018-09-12T18:04:57.488Z,27.27
2018-09-12T18:07:25.961Z,27.20
2018-09-12T18:09:54.411Z,27.14
2018-09-12T18:14:57.406Z,27.06
2018-09-12T18:17:25.844Z,26.95
2018-09-12T18:19:54.241Z,26.78
2018-09-12T18:22:22.616Z,26.69
2018-09-12T18:24:51.159Z,26.69
2018-09-12T18:27:19.506Z,26.69
2018-09-12T18:29:47.977Z,26.60
2018-09-12T18:32:16.374Z,26.51
2018-09-12T18:34:44.885Z,26.43
2018-09-12T18:37:13.325Z,26.38
2018-09-12T18:39:41.721Z,26.31
2018-09-12T18:42:10.111Z,26.26
2018-09-12T18:44:38.537Z,26.22
2018-09-12T18:47:06.941Z,26.22
2018-09-12T18:49:35.341Z,26.16
2018-09-12T18:52:03.738Z,26.14
2018-09-12T18:54:32.132Z,26.15
2018-09-12T18:57:00.540Z,26.18
2018-09-12T18:59:28.998Z,26.19
2018-09-12T19:01:57.421Z,26.16
2018-09-12T19:04:25.845Z,26.13
2018-09-12T19:06:54.357Z,26.10
2018-09-12T19:09:22.702Z,26.02
2018-09-12T19:11:51.121Z,26.01
2018-09-12T19:14:19.497Z,25.93
2018-09-12T19:16:47.929Z,25.90
2018-09-12T19:19:16.309Z,25.89
2018-09-12T19:21:44.745Z,25.86
2018-09-12T19:24:13.184Z,25.81
2018-09-12T19:26:41.613Z,25.73
2018-09-12T19:29:09.985Z,25.78
2018-09-12T19:31:38.409Z,25.73
2018-09-12T19:34:06.815Z,25.67
2018-09-12T19:36:35.346Z,25.56
2018-09-12T19:39:04.075Z,25.50
2018-09-12T19:41:32.486Z,25.45
2018-09-12T19:44:00.861Z,25.42
2018-09-12T19:46:29.273Z,25.48
2018-09-12T19:48:57.662Z,25.56
2018-09-12T19:51:26.269Z,25.45
2018-09-12T19:53:54.747Z,25.42
2018-09-12T19:56:23.313Z,25.42
2018-09-12T19:58:51.728Z,25.39
2018-09-12T20:01:20.190Z,25.31
2018-09-12T20:03:48.616Z,25.18
2018-09-12T20:06:16.997Z,25.17
2018-09-12T20:08:45.569Z,25.07
2018-09-12T20:11:13.957Z,25.04
2018-09-12T20:13:42.444Z,25.01
2018-09-12T20:16:10.952Z,24.97
2018-09-12T20:18:39.397Z,24.92
2018-09-12T20:21:07.813Z,24.98
2018-09-12T20:23:36.379Z,25.03
2018-09-12T20:26:05.052Z,25.07
2018-09-12T20:28:41.872Z,25.05
2018-09-12T20:31:10.667Z,25.07
2018-09-12T20:33:39.872Z,25.05
2018-09-12T20:36:08.373Z,25.02
2018-09-12T20:38:36.891Z,25.00
2018-09-12T20:41:05.865Z,25.00
2018-09-12T20:43:34.551Z,24.98
2018-09-12T20:46:03.727Z,24.97
2018-09-12T20:48:32.209Z,24.86
2018-09-12T20:51:01.976Z,24.72
2018-09-12T20:53:30.435Z,24.68
2018-09-12T20:55:58.829Z,24.67
2018-09-12T20:58:27.260Z,24.63
2018-09-12T21:00:55.754Z,24.53
2018-09-12T21:03:24.138Z,24.48
2018-09-12T21:05:52.741Z,24.46
2018-09-12T21:11:23.722Z,24.45
2018-09-12T21:13:52.130Z,24.49
2018-09-12T21:16:20.566Z,24.44
2018-09-12T21:18:49.032Z,24.37
2018-09-12T21:21:17.495Z,24.35
2018-09-12T21:23:46.100Z,24.31
2018-09-12T21:26:14.580Z,24.26
2018-09-12T21:28:43.082Z,24.17
2018-09-12T21:31:11.565Z,23.99
2018-09-12T21:33:43.017Z,23.80
2018-09-12T21:38:38.951Z,23.54
2018-09-12T21:41:07.650Z,23.47
2018-09-12T21:43:36.111Z,23.44
2018-09-12T21:46:04.606Z,23.38
2018-09-12T21:48:33.649Z,23.33
2018-09-12T21:51:02.471Z,23.31
2018-09-12T21:53:31.086Z,23.21
2018-09-12T21:55:59.713Z,23.17
2018-09-12T21:58:28.199Z,23.14
2018-09-12T22:00:56.689Z,23.09
2018-09-12T22:03:25.104Z,23.10
2018-09-12T22:05:53.632Z,23.11
2018-09-12T22:08:22.237Z,23.13
2018-09-12T22:10:50.746Z,23.22
2018-09-12T22:13:19.465Z,23.31
2018-09-12T22:15:47.937Z,23.41
2018-09-12T22:18:17.514Z,23.36
2018-09-12T22:20:45.955Z,23.23
2018-09-12T22:23:14.487Z,23.12
2018-09-12T22:25:42.934Z,23.01
2018-09-12T22:28:11.447Z,22.90
2018-09-12T22:30:40.126Z,22.71
2018-09-12T22:33:08.658Z,22.58
2018-09-12T22:35:37.065Z,22.51
2018-09-12T22:38:05.847Z,22.45
2018-09-12T22:40:34.311Z,22.50
2018-09-12T22:43:03.558Z,22.57
2018-09-12T22:45:32.138Z,22.57
2018-09-12T22:48:00.948Z,22.49
2018-09-12T22:50:29.405Z,22.40
2018-09-12T22:52:57.838Z,22.36
2018-09-12T22:55:32.536Z,22.40
2018-09-12T22:58:01.035Z,22.43
2018-09-12T23:00:29.577Z,22.48
2018-09-12T23:02:58.001Z,22.57
2018-09-12T23:05:26.458Z,22.64
2018-09-12T23:07:54.882Z,22.74
2018-09-12T23:10:23.342Z,22.77
2018-09-12T23:12:51.755Z,22.73
2018-09-12T23:15:20.214Z,22.76
2018-09-12T23:17:48.642Z,22.68
2018-09-12T23:20:17.124Z,22.58
2018-09-12T23:22:45.537Z,22.57
2018-09-12T23:25:14.007Z,22.65
2018-09-12T23:27:42.406Z,22.73
2018-09-12T23:30:10.858Z,22.73
2018-09-12T23:32:39.277Z,22.76
2018-09-12T23:35:07.762Z,22.74
2018-09-12T23:37:36.175Z,22.68
2018-09-12T23:40:04.646Z,22.68
2018-09-12T23:42:33.114Z,22.68
2018-09-12T23:45:01.991Z,22.71
2018-09-12T23:47:30.393Z,22.69
2018-09-12T23:49:58.849Z,22.49
2018-09-12T23:52:27.281Z,22.49
2018-09-12T23:54:55.717Z,22.41
2018-09-12T23:57:24.094Z,22.46
2018-09-12T23:59:52.481Z,22.57
